createdAt,value
2017-08-10T00:02:17.723Z,24.80
2017-08-10T00:04:44.176Z,24.80
2017-08-10T00:07:11.394Z,24.60
2017-08-10T00:09:37.861Z,24.50
2017-08-10T00:12:05.064Z,24.40
2017-08-10T00:14:31.580Z,24.40
2017-08-10T00:16:58.017Z,24.40
2017-08-10T00:19:24.453Z,24.50
2017-08-10T00:21:50.922Z,24.40
2017-08-10T00:24:17.356Z,24.30
2017-08-10T00:26:43.915Z,24.30
2017-08-10T00:29:11.112Z,24.00
2017-08-10T00:31:37.548Z,24.00
2017-08-10T00:34:04.010Z,23.90
2017-08-10T00:36:30.452Z,23.70
2017-08-10T00:38:56.910Z,23.70
2017-08-10T00:41:24.116Z,23.40
2017-08-10T00:43:50.570Z,23.40
2017-08-10T00:46:16.998Z,23.10
2017-08-10T00:48:43.454Z,23.10
2017-08-10T00:51:10.662Z,23.20
2017-08-10T00:53:37.099Z,23.20
2017-08-10T00:56:03.557Z,23.30
2017-08-10T00:58:30.004Z,23.30
2017-08-10T01:00:57.231Z,23.20
2017-08-10T01:03:23.654Z,23.20
2017-08-10T01:05:50.107Z,23.10
2017-08-10T01:08:16.527Z,23.10
2017-08-10T01:10:43.159Z,23.20
2017-08-10T01:13:09.620Z,23.30
2017-08-10T01:15:36.065Z,23.40
2017-08-10T01:18:02.511Z,23.40
2017-08-10T01:20:29.710Z,23.40
2017-08-10T01:22:56.171Z,23.40
2017-08-10T01:25:22.608Z,23.30
2017-08-10T01:27:49.059Z,23.40
2017-08-10T01:30:15.532Z,23.40
2017-08-10T01:32:41.979Z,23.30
2017-08-10T01:35:08.452Z,23.10
2017-08-10T01:37:35.659Z,23.00
2017-08-10T01:40:02.169Z,23.00
2017-08-10T01:42:28.618Z,23.00
2017-08-10T01:44:55.084Z,22.90
2017-08-10T01:47:21.644Z,23.00
2017-08-10T01:49:48.883Z,22.90
2017-08-10T01:52:16.080Z,22.90
2017-08-10T01:54:42.557Z,22.80
2017-08-10T01:57:09.048Z,22.90
2017-08-10T01:59:35.515Z,23.00
2017-08-10T02:02:02.024Z,22.90
2017-08-10T02:04:28.527Z,22.90
2017-08-10T02:06:55.727Z,22.80
2017-08-10T02:09:22.179Z,22.80
2017-08-10T02:11:48.647Z,22.80
2017-08-10T02:14:15.835Z,22.70
2017-08-10T02:16:42.297Z,22.70
2017-08-10T02:19:08.742Z,22.70
2017-08-10T02:21:35.218Z,22.60
2017-08-10T02:24:01.681Z,22.60
2017-08-10T02:26:28.136Z,22.40
2017-08-10T02:28:54.584Z,22.40
2017-08-10T02:31:21.058Z,22.40
2017-08-10T02:33:47.528Z,22.30
2017-08-10T02:36:14.000Z,22.20
2017-08-10T02:38:41.184Z,22.00
2017-08-10T02:41:07.651Z,22.00
2017-08-10T02:43:34.351Z,22.00
2017-08-10T02:46:00.806Z,21.90
2017-08-10T02:48:27.311Z,21.80
2017-08-10T02:50:53.832Z,21.80
2017-08-10T02:53:21.024Z,21.70
2017-08-10T02:55:47.488Z,21.60
2017-08-10T02:58:13.944Z,21.60
2017-08-10T03:00:41.133Z,21.50
2017-08-10T03:03:07.623Z,21.50
2017-08-10T03:05:34.823Z,21.50
2017-08-10T03:08:01.255Z,21.50
2017-08-10T03:10:27.696Z,21.50
2017-08-10T03:12:54.145Z,21.40
2017-08-10T03:15:20.610Z,21.40
2017-08-10T03:17:47.767Z,21.30
2017-08-10T03:20:14.969Z,21.30
2017-08-10T03:22:41.457Z,21.30
2017-08-10T03:25:07.923Z,21.20
2017-08-10T03:27:34.382Z,21.10
2017-08-10T03:30:00.840Z,21.00
2017-08-10T03:32:28.017Z,20.80
2017-08-10T03:34:54.476Z,20.80
2017-08-10T03:37:20.950Z,20.70
2017-08-10T03:39:48.865Z,20.80
2017-08-10T03:42:15.331Z,20.80
2017-08-10T03:44:41.779Z,20.80
2017-08-10T03:47:08.219Z,20.90
2017-08-10T03:49:35.424Z,20.90
2017-08-10T03:52:01.873Z,20.80
2017-08-10T03:54:28.352Z,20.90
2017-08-10T03:56:55.553Z,20.80
2017-08-10T03:59:21.994Z,20.80
2017-08-10T04:01:48.427Z,20.90
2017-08-10T04:04:14.944Z,20.80
2017-08-10T04:06:41.393Z,20.80
2017-08-10T04:09:07.854Z,20.90
2017-08-10T04:11:34.339Z,20.80
2017-08-10T04:14:00.823Z,20.80
2017-08-10T04:16:27.294Z,20.80
2017-08-10T04:18:53.755Z,20.80
2017-08-10T04:21:20.203Z,20.80
2017-08-10T04:23:46.647Z,20.80
2017-08-10T04:26:13.111Z,20.80
2017-08-10T04:28:40.285Z,20.90
2017-08-10T04:31:06.723Z,20.90
2017-08-10T04:33:33.175Z,20.90
2017-08-10T04:35:59.630Z,20.90
2017-08-10T04:38:26.129Z,20.90
2017-08-10T04:40:52.601Z,20.80
2017-08-10T04:43:19.074Z,20.90
2017-08-10T04:45:45.576Z,20.80
2017-08-10T04:48:12.041Z,20.80
2017-08-10T04:50:38.538Z,20.80
2017-08-10T04:53:04.987Z,20.80
2017-08-10T04:55:31.446Z,20.80
2017-08-10T04:57:57.955Z,20.90
2017-08-10T05:00:25.195Z,21.00
2017-08-10T05:02:51.651Z,21.00
2017-08-10T05:05:18.124Z,21.00
2017-08-10T05:07:45.152Z,21.10
2017-08-10T05:10:11.600Z,21.30
2017-08-10T05:12:38.142Z,21.30
2017-08-10T05:15:04.686Z,21.20
2017-08-10T05:17:31.143Z,21.10
2017-08-10T05:19:57.618Z,21.00
2017-08-10T05:22:24.073Z,21.00
2017-08-10T05:24:50.511Z,21.00
2017-08-10T05:27:17.498Z,21.20
2017-08-10T05:29:43.936Z,21.30
2017-08-10T05:32:10.390Z,21.50
2017-08-10T05:34:37.559Z,22.00
2017-08-10T05:37:04.010Z,22.00
2017-08-10T05:39:30.465Z,22.10
2017-08-10T05:41:56.923Z,22.20
2017-08-10T05:44:23.379Z,22.30
2017-08-10T05:46:50.558Z,22.70
2017-08-10T05:49:17.028Z,22.70
2017-08-10T05:51:43.480Z,22.90
2017-08-10T05:54:09.925Z,22.90
2017-08-10T05:56:37.123Z,23.10
2017-08-10T05:59:03.590Z,23.00
2017-08-10T06:01:30.059Z,23.20
2017-08-10T06:03:57.256Z,23.40
2017-08-10T06:06:23.733Z,23.40
2017-08-10T06:08:50.921Z,23.70
2017-08-10T06:11:17.397Z,23.60
2017-08-10T06:13:43.839Z,23.90
2017-08-10T06:16:10.317Z,24.00
2017-08-10T06:18:36.789Z,24.00
2017-08-10T06:21:03.251Z,24.30
2017-08-10T06:23:30.444Z,24.80
2017-08-10T06:25:56.924Z,24.80
2017-08-10T06:28:24.127Z,25.70
2017-08-10T06:30:50.601Z,25.60
2017-08-10T06:33:17.123Z,26.00
2017-08-10T06:35:43.607Z,26.30
2017-08-10T06:38:10.122Z,26.40
2017-08-10T06:40:37.332Z,27.10
2017-08-10T06:43:03.781Z,27.00
2017-08-10T06:45:30.242Z,27.20
2017-08-10T06:47:57.436Z,27.00
2017-08-10T06:50:23.913Z,27.00
2017-08-10T06:52:50.388Z,26.70
2017-08-10T06:55:16.840Z,26.40
2017-08-10T06:57:43.274Z,26.20
2017-08-10T07:00:09.728Z,25.90
2017-08-10T07:02:36.205Z,25.90
2017-08-10T07:05:03.442Z,26.00
2017-08-10T07:07:29.900Z,26.00
2017-08-10T07:09:57.095Z,26.20
2017-08-10T07:12:23.553Z,26.20
2017-08-10T07:14:50.000Z,26.00
2017-08-10T07:17:17.225Z,25.70
2017-08-10T07:19:43.660Z,25.70
2017-08-10T07:22:10.108Z,25.50
2017-08-10T07:24:36.568Z,25.50
2017-08-10T07:27:03.753Z,25.50
2017-08-10T07:29:30.217Z,25.50
2017-08-10T07:31:56.700Z,25.50
2017-08-10T07:34:23.151Z,25.40
2017-08-10T07:36:49.635Z,25.40
2017-08-10T07:39:16.096Z,25.40
2017-08-10T07:41:42.526Z,25.30
2017-08-10T07:44:09.729Z,25.40
2017-08-10T07:46:36.194Z,25.40
2017-08-10T07:49:03.412Z,25.60
2017-08-10T07:51:29.875Z,25.60
2017-08-10T07:53:57.297Z,25.40
2017-08-10T07:56:23.775Z,25.40
2017-08-10T07:58:50.990Z,25.40
2017-08-10T08:01:17.443Z,25.40
2017-08-10T08:03:43.890Z,25.50
2017-08-10T08:06:11.084Z,25.70
2017-08-10T08:08:37.547Z,25.70
2017-08-10T08:11:04.089Z,26.00
2017-08-10T08:13:45.498Z,26.10
2017-08-10T08:16:12.688Z,26.40
2017-08-10T08:18:39.149Z,26.30
2017-08-10T08:21:05.652Z,26.40
2017-08-10T08:23:32.148Z,26.30
2017-08-10T08:26:00.726Z,26.40
2017-08-10T08:28:42.842Z,26.60
2017-08-10T08:31:10.060Z,26.50
2017-08-10T08:33:36.554Z,26.50
2017-08-10T08:36:03.051Z,26.60
2017-08-10T08:38:30.293Z,26.80
2017-08-10T08:40:57.507Z,26.70
2017-08-10T08:43:23.991Z,26.70
2017-08-10T08:45:51.230Z,26.50
2017-08-10T08:48:17.668Z,26.50
2017-08-10T08:50:44.132Z,26.70
2017-08-10T08:53:17.771Z,26.70
2017-08-10T08:55:44.280Z,26.60
2017-08-10T08:58:10.757Z,26.50
2017-08-10T09:00:37.208Z,26.40
2017-08-10T09:03:03.684Z,26.20
2017-08-10T09:05:30.180Z,26.20
2017-08-10T09:07:56.639Z,26.10
2017-08-10T09:10:23.111Z,26.10
2017-08-10T09:12:49.576Z,26.00
2017-08-10T09:15:16.068Z,26.00
2017-08-10T09:17:42.546Z,26.00
2017-08-10T09:20:09.016Z,25.90
2017-08-10T09:22:35.534Z,25.90
2017-08-10T09:25:02.735Z,25.80
2017-08-10T09:27:29.250Z,25.80
2017-08-10T09:29:55.744Z,25.90
2017-08-10T09:32:22.218Z,26.00
2017-08-10T09:34:48.784Z,26.00
2017-08-10T09:37:15.256Z,26.00
2017-08-10T09:39:42.486Z,26.00
2017-08-10T09:42:08.959Z,26.00
2017-08-10T09:44:35.424Z,26.10
2017-08-10T09:47:01.901Z,26.20
2017-08-10T09:49:28.364Z,26.20
2017-08-10T09:51:54.860Z,26.30
2017-08-10T09:54:21.323Z,26.50
2017-08-10T09:56:48.499Z,26.60
2017-08-10T09:59:14.961Z,26.60
2017-08-10T10:01:41.397Z,26.60
2017-08-10T10:04:07.828Z,26.70
2017-08-10T10:06:34.281Z,26.70
2017-08-10T10:09:02.298Z,26.70
2017-08-10T10:11:28.768Z,26.70
2017-08-10T10:13:55.233Z,26.90
2017-08-10T10:16:22.435Z,26.90
2017-08-10T10:18:49.100Z,26.90
2017-08-10T10:21:15.551Z,26.90
2017-08-10T10:23:56.935Z,26.90
2017-08-10T10:26:23.834Z,26.90
2017-08-10T10:28:50.280Z,26.70
2017-08-10T10:31:16.696Z,26.70
2017-08-10T10:33:43.143Z,26.80
2017-08-10T10:36:09.613Z,27.00
2017-08-10T10:38:36.091Z,27.10
2017-08-10T10:41:02.575Z,27.20
2017-08-10T10:43:29.037Z,27.30
2017-08-10T10:45:56.218Z,27.40
2017-08-10T10:48:22.682Z,27.40
2017-08-10T10:50:49.124Z,27.50
2017-08-10T10:53:15.589Z,27.60
2017-08-10T10:55:42.047Z,27.50
2017-08-10T10:58:14.655Z,27.50
2017-08-10T11:03:29.721Z,27.50
2017-08-10T11:06:04.858Z,27.50
2017-08-10T11:08:32.398Z,27.70
2017-08-10T11:11:11.644Z,27.90
2017-08-10T11:13:47.985Z,28.00
2017-08-10T11:16:30.904Z,28.30
2017-08-10T11:19:18.468Z,28.20
2017-08-10T11:24:22.460Z,28.30
2017-08-10T11:26:52.719Z,28.50
2017-08-10T11:29:19.168Z,28.40
2017-08-10T11:31:45.640Z,28.40
2017-08-10T11:34:12.803Z,28.50
2017-08-10T11:36:46.942Z,28.50
2017-08-10T11:39:13.421Z,28.60
2017-08-10T11:41:39.900Z,28.70
2017-08-10T11:44:06.365Z,28.90
2017-08-10T11:46:32.834Z,28.70
2017-08-10T11:48:59.310Z,28.60
2017-08-10T11:51:25.772Z,28.70
2017-08-10T11:53:52.200Z,28.90
2017-08-10T11:56:18.651Z,28.90
2017-08-10T11:58:45.123Z,28.70
2017-08-10T12:01:11.603Z,28.50
2017-08-10T12:03:38.052Z,28.50
2017-08-10T12:06:04.509Z,28.50
2017-08-10T12:08:30.973Z,28.70
2017-08-10T12:10:57.415Z,28.80
2017-08-10T12:13:23.884Z,29.00
2017-08-10T12:15:50.349Z,29.20
2017-08-10T12:18:17.553Z,29.30
2017-08-10T12:20:44.010Z,29.30
2017-08-10T12:23:10.484Z,29.50
2017-08-10T12:25:36.915Z,29.30
2017-08-10T12:28:03.571Z,29.10
2017-08-10T12:30:30.025Z,28.90
2017-08-10T12:32:56.469Z,28.80
2017-08-10T12:35:22.957Z,28.70
2017-08-10T12:38:04.352Z,28.70
2017-08-10T12:40:30.822Z,28.70
2017-08-10T12:42:57.259Z,28.50
2017-08-10T12:45:23.717Z,28.50
2017-08-10T12:47:50.201Z,28.80
2017-08-10T12:50:16.670Z,29.00
2017-08-10T12:52:43.124Z,29.40
2017-08-10T12:55:10.361Z,29.90
2017-08-10T12:57:36.805Z,29.90
2017-08-10T13:00:03.306Z,29.90
2017-08-10T13:02:29.782Z,30.10
2017-08-10T13:04:56.971Z,30.10
2017-08-10T13:07:23.432Z,30.10
2017-08-10T13:09:49.874Z,30.40
2017-08-10T13:12:16.354Z,30.50
2017-08-10T13:14:42.807Z,30.70
2017-08-10T13:17:09.256Z,30.90
2017-08-10T13:19:35.753Z,30.80
2017-08-10T13:22:02.235Z,31.00
2017-08-10T13:24:28.693Z,31.10
2017-08-10T13:27:10.825Z,31.30
2017-08-10T13:29:37.308Z,31.30
2017-08-10T13:32:03.790Z,31.10
2017-08-10T13:34:30.288Z,31.00
2017-08-10T13:36:56.749Z,30.70
2017-08-10T13:39:23.227Z,30.70
2017-08-10T13:41:49.696Z,30.70
2017-08-10T13:44:16.173Z,30.80
2017-08-10T13:46:43.432Z,31.00
2017-08-10T13:49:09.905Z,31.00
2017-08-10T13:51:36.353Z,31.10
2017-08-10T13:54:03.418Z,31.20
2017-08-10T13:56:30.603Z,31.00
2017-08-10T13:58:57.079Z,31.00
2017-08-10T14:01:23.566Z,31.00
2017-08-10T14:03:50.032Z,31.10
2017-08-10T14:06:16.507Z,31.00
2017-08-10T14:08:43.720Z,30.90
2017-08-10T14:11:10.153Z,30.90
2017-08-10T14:13:36.594Z,30.70
2017-08-10T14:16:03.054Z,30.50
2017-08-10T14:18:30.260Z,30.40
2017-08-10T14:20:56.724Z,30.40
2017-08-10T14:23:23.194Z,30.50
2017-08-10T14:25:49.646Z,30.60
2017-08-10T14:28:16.080Z,30.60
2017-08-10T14:30:42.544Z,30.50
2017-08-10T14:33:09.032Z,30.50
2017-08-10T14:35:35.456Z,30.50
2017-08-10T14:38:01.932Z,30.50
2017-08-10T14:40:28.451Z,30.30
2017-08-10T14:42:54.946Z,30.20
2017-08-10T14:45:22.252Z,30.00
2017-08-10T14:47:48.707Z,29.90
2017-08-10T14:50:15.208Z,29.90
2017-08-10T14:52:41.659Z,29.80
2017-08-10T14:55:08.160Z,29.80
2017-08-10T14:57:34.619Z,29.90
2017-08-10T15:00:01.119Z,29.80
2017-08-10T15:02:28.295Z,29.60
2017-08-10T15:04:54.785Z,29.60
2017-08-10T15:07:21.238Z,29.50
2017-08-10T15:09:48.441Z,29.40
2017-08-10T15:12:14.895Z,29.30
2017-08-10T15:14:41.351Z,29.30
2017-08-10T15:17:08.551Z,29.20
2017-08-10T15:19:35.009Z,29.20
2017-08-10T15:22:01.453Z,29.00
2017-08-10T15:24:27.941Z,28.60
2017-08-10T15:26:54.436Z,28.40
2017-08-10T15:29:21.623Z,28.20
2017-08-10T15:31:48.083Z,28.20
2017-08-10T15:34:14.547Z,28.10
2017-08-10T15:36:41.020Z,27.80
2017-08-10T15:39:07.492Z,27.50
2017-08-10T15:41:33.948Z,27.40
2017-08-10T15:44:00.389Z,27.50
2017-08-10T15:46:27.214Z,27.50
2017-08-10T15:48:53.655Z,27.40
2017-08-10T15:51:20.112Z,27.30
2017-08-10T15:53:47.351Z,27.30
2017-08-10T15:56:13.851Z,27.20
2017-08-10T15:58:40.299Z,27.40
2017-08-10T16:01:06.746Z,27.50
2017-08-10T16:03:33.201Z,27.50
2017-08-10T16:06:00.390Z,27.60
2017-08-10T16:08:26.878Z,27.60
2017-08-10T16:10:53.335Z,27.50
2017-08-10T16:13:19.784Z,27.60
2017-08-10T16:15:46.239Z,27.70
2017-08-10T16:18:12.687Z,27.80
2017-08-10T16:20:39.151Z,28.00
2017-08-10T16:23:06.347Z,28.10
2017-08-10T16:25:32.786Z,28.00
2017-08-10T16:27:59.260Z,27.90
2017-08-10T16:30:26.467Z,27.90
2017-08-10T16:32:52.907Z,27.90
2017-08-10T16:35:19.416Z,28.00
2017-08-10T16:37:45.871Z,27.90
2017-08-10T16:40:12.387Z,28.00
2017-08-10T16:42:39.123Z,27.90
2017-08-10T16:45:05.572Z,27.80
2017-08-10T16:47:32.036Z,27.70
2017-08-10T16:49:58.517Z,27.50
2017-08-10T16:52:24.959Z,27.60
2017-08-10T16:54:51.401Z,27.60
2017-08-10T16:57:17.861Z,27.50
2017-08-10T16:59:44.306Z,27.50
2017-08-10T17:02:10.777Z,27.60
2017-08-10T17:04:37.981Z,27.50
2017-08-10T17:07:04.431Z,27.50
2017-08-10T17:09:30.930Z,27.50
2017-08-10T17:11:57.415Z,27.50
2017-08-10T17:14:23.848Z,27.50
2017-08-10T17:16:50.306Z,27.50
2017-08-10T17:19:16.756Z,27.60
2017-08-10T17:21:43.222Z,27.60
2017-08-10T17:24:09.704Z,27.60
2017-08-10T17:26:36.147Z,27.50
2017-08-10T17:29:02.598Z,27.30
2017-08-10T17:31:29.056Z,27.10
2017-08-10T17:33:55.509Z,27.00
2017-08-10T17:36:21.956Z,26.90
2017-08-10T17:38:49.163Z,26.80
2017-08-10T17:41:15.608Z,26.80
2017-08-10T17:43:42.070Z,26.80
2017-08-10T17:46:09.523Z,26.80
2017-08-10T17:48:37.454Z,26.80
2017-08-10T17:51:03.912Z,26.80
2017-08-10T17:53:30.381Z,26.70
2017-08-10T17:55:56.855Z,26.70
2017-08-10T17:58:23.339Z,26.60
2017-08-10T18:00:50.527Z,26.50
2017-08-10T18:03:16.996Z,26.50
2017-08-10T18:05:43.494Z,26.40
2017-08-10T18:08:09.929Z,26.40
2017-08-10T18:10:36.415Z,26.40
2017-08-10T18:13:02.904Z,26.20
2017-08-10T18:15:29.384Z,26.20
2017-08-10T18:17:56.598Z,25.90
2017-08-10T18:20:23.043Z,25.90
2017-08-10T18:22:49.471Z,25.70
2017-08-10T18:25:15.931Z,25.70
2017-08-10T18:27:42.371Z,25.60
2017-08-10T18:30:08.809Z,25.60
2017-08-10T18:32:35.308Z,25.70
2017-08-10T18:35:01.737Z,25.60
2017-08-10T18:37:28.196Z,25.50
2017-08-10T18:39:54.645Z,25.50
2017-08-10T18:42:21.859Z,25.50
2017-08-10T18:44:48.302Z,25.50
2017-08-10T18:47:14.744Z,25.40
2017-08-10T18:49:41.449Z,25.30
2017-08-10T18:52:07.892Z,25.20
2017-08-10T18:54:34.359Z,25.00
2017-08-10T18:57:00.848Z,24.70
2017-08-10T18:59:27.328Z,24.70
2017-08-10T19:01:53.759Z,24.80
2017-08-10T19:04:20.240Z,25.00
2017-08-10T19:06:46.688Z,25.10
2017-08-10T19:09:13.147Z,25.30
2017-08-10T19:11:39.606Z,25.30
2017-08-10T19:14:06.051Z,25.40
2017-08-10T19:16:33.247Z,25.80
2017-08-10T19:18:59.713Z,25.70
2017-08-10T19:21:26.204Z,25.80
2017-08-10T19:23:52.670Z,25.90
2017-08-10T19:26:19.116Z,25.80
2017-08-10T19:28:45.580Z,25.70
2017-08-10T19:31:12.774Z,25.50
2017-08-10T19:33:39.266Z,25.40
2017-08-10T19:36:05.825Z,25.40
2017-08-10T19:38:32.298Z,25.40
2017-08-10T19:40:58.727Z,25.10
2017-08-10T19:43:25.179Z,25.10
2017-08-10T19:45:51.634Z,25.20
2017-08-10T19:48:18.816Z,25.10
2017-08-10T19:50:45.268Z,25.10
2017-08-10T19:53:11.712Z,25.00
2017-08-10T19:55:38.159Z,25.00
2017-08-10T19:58:04.644Z,25.00
2017-08-10T20:00:31.105Z,24.90
2017-08-10T20:02:57.546Z,24.90
2017-08-10T20:05:24.026Z,24.90
2017-08-10T20:07:50.491Z,24.80
2017-08-10T20:10:16.943Z,24.70
2017-08-10T20:12:43.414Z,24.80
2017-08-10T20:15:09.867Z,24.80
2017-08-10T20:17:36.316Z,24.70
2017-08-10T20:20:02.777Z,24.60
2017-08-10T20:22:29.241Z,24.50
2017-08-10T20:24:55.720Z,24.40
2017-08-10T20:27:22.179Z,24.20
2017-08-10T20:29:48.638Z,24.20
2017-08-10T20:32:15.119Z,24.20
2017-08-10T20:34:41.579Z,24.10
2017-08-10T20:37:08.011Z,24.20
2017-08-10T20:39:34.472Z,24.20
2017-08-10T20:42:00.920Z,24.20
2017-08-10T20:44:28.088Z,24.00
2017-08-10T20:46:54.564Z,24.00
2017-08-10T20:49:21.035Z,24.00
2017-08-10T20:51:47.511Z,24.00
2017-08-10T20:54:13.959Z,24.00
2017-08-10T20:56:40.423Z,23.90
2017-08-10T20:59:06.885Z,23.80
2017-08-10T21:01:34.096Z,23.70
2017-08-10T21:04:00.544Z,23.70
2017-08-10T21:06:27.009Z,23.70
2017-08-10T21:08:54.211Z,23.20
2017-08-10T21:11:20.663Z,23.20
2017-08-10T21:13:47.127Z,23.10
2017-08-10T21:16:14.323Z,22.90
2017-08-10T21:18:40.771Z,22.90
2017-08-10T21:21:07.242Z,22.70
2017-08-10T21:23:34.425Z,22.40
2017-08-10T21:26:00.957Z,22.30
2017-08-10T21:28:27.418Z,22.30
2017-08-10T21:30:53.861Z,22.40
2017-08-10T21:33:20.330Z,22.30
2017-08-10T21:35:46.813Z,22.20
2017-08-10T21:38:13.255Z,22.30
2017-08-10T21:40:39.687Z,22.30
2017-08-10T21:43:06.156Z,22.40
2017-08-10T21:45:33.528Z,22.30
2017-08-10T21:48:00.020Z,22.30
2017-08-10T21:50:26.512Z,22.30
2017-08-10T21:52:52.956Z,22.30
2017-08-10T21:55:19.417Z,22.30
2017-08-10T21:57:45.917Z,22.20
2017-08-10T22:00:14.582Z,22.10
2017-08-10T22:02:41.054Z,22.10
2017-08-10T22:05:07.531Z,22.00
2017-08-10T22:07:33.975Z,22.10
2017-08-10T22:10:01.209Z,22.10
2017-08-10T22:12:27.665Z,22.10
2017-08-10T22:14:54.860Z,21.90
2017-08-10T22:17:21.279Z,21.80
2017-08-10T22:19:47.764Z,21.70
2017-08-10T22:22:14.956Z,21.60
2017-08-10T22:24:41.460Z,21.50
2017-08-10T22:27:08.652Z,21.20
2017-08-10T22:29:35.116Z,21.20
2017-08-10T22:32:01.612Z,21.30
2017-08-10T22:34:28.093Z,21.50
2017-08-10T22:36:54.560Z,21.60
2017-08-10T22:39:21.764Z,21.80
2017-08-10T22:41:48.216Z,21.80
2017-08-10T22:44:14.698Z,21.80
2017-08-10T22:46:41.171Z,21.70
2017-08-10T22:49:07.623Z,21.60
2017-08-10T22:51:34.087Z,21.60
2017-08-10T22:54:00.544Z,21.60
2017-08-10T22:56:26.983Z,21.60
2017-08-10T22:58:53.435Z,21.70
2017-08-10T23:01:19.907Z,21.70
2017-08-10T23:03:47.075Z,21.80
2017-08-10T23:06:13.520Z,21.80
2017-08-10T23:08:39.961Z,21.80
2017-08-10T23:11:06.436Z,21.70
2017-08-10T23:13:32.905Z,21.70
2017-08-10T23:15:59.361Z,21.60
2017-08-10T23:18:25.807Z,21.60
2017-08-10T23:20:52.282Z,21.60
2017-08-10T23:23:19.471Z,21.50
2017-08-10T23:25:45.926Z,21.40
2017-08-10T23:28:12.369Z,21.50
2017-08-10T23:30:38.826Z,21.40
2017-08-10T23:33:05.313Z,21.30
2017-08-10T23:35:31.779Z,21.30
2017-08-10T23:37:58.200Z,21.20
2017-08-10T23:40:24.662Z,21.00
2017-08-10T23:42:51.121Z,21.10
2017-08-10T23:45:17.591Z,21.20
2017-08-10T23:47:44.050Z,21.40
2017-08-10T23:50:10.507Z,21.30
2017-08-10T23:52:36.943Z,21.30
2017-08-10T23:55:04.151Z,21.40
2017-08-10T23:57:30.599Z,21.30
2017-08-10T23:59:57.040Z,21.30
